Martorell — HPNE — position and weather

sailwx.info

Track history (hours):
 
Tides and Currents Weather Stations Pressure Air Temp Water Temp Dewpoint Dewpoint Depression Visibility Wind Speed Wind Dir Waves Ship Positions

Martorell

Last reported at 2017-Sep-15 08:01 UTC. Time now 2017-Sep-23 16:23 UTC.
Position N 32°31' W 125°25'.
Warning: this ship's position is 8 days out of date.

Type: Cargo ship. MMSI: 351780000.

Date/timePositionNaut miles runAvg speedWind from/ knotsBaromVisibWave heightAir tempDewpointWater temp
2017-Sep-15 08:01N 32°31' W 125°25'016.1
2017-Sep-15 08:01N 32°31' W 125°25'1016.4
2017-Sep-15 07:23N 32°25' W 125°15'816.2
2017-Sep-15 06:53N 32°21' W 125°07'1116.5
2017-Sep-15 06:12N 32°15' W 124°56'316.5
2017-Sep-15 06:00N 32°13' W 124°53'1316.6
2017-Sep-15 05:12N 32°05' W 124°40'317.0
2017-Sep-15 05:00N 32°03' W 124°37'1116.8
2017-Sep-15 04:21N 31°57' W 124°26'616.8
2017-Sep-15 04:00N 31°54' W 124°20'816.8
2017-Sep-15 03:31N 31°49' W 124°12'1016.5
2017-Sep-15 02:54N 31°44' W 124°02'616.4
2017-Sep-15 02:30N 31°40' W 123°56'816.8
2017-Sep-15 02:01N 31°35' W 123°48'1016.4
2017-Sep-15 01:26N 31°30' W 123°39'716.6
2017-Sep-15 01:00N 31°26' W 123°32'816.6
2017-Sep-15 00:30N 31°22' W 123°24'916.5
2017-Sep-14 23:59N 31°17' W 123°15'816.5
2017-Sep-14 23:30N 31°12' W 123°08'916.3
2017-Sep-14 22:58N 31°07' W 122°59'716.1
2017-Sep-14 22:30N 31°03' W 122°52'26714.5
2017-Sep-14 04:03N 32°04' W 117°47'216.7
2017-Sep-14 03:57N 32°06' W 117°46'817.1
2017-Sep-14 03:30N 32°12' W 117°41'917.2
2017-Sep-14 03:01N 32°19' W 117°35'917.1
2017-Sep-14 02:30N 32°26' W 117°29'917.2
2017-Sep-14 02:00N 32°33' W 117°23'816.2
2017-Sep-14 01:30N 32°37' W 117°15'5 9.7
2017-Sep-14 01:00N 32°42' W 117°14'4 8.6
2017-Sep-14 00:30N 32°41' W 117°09'2 4.6
2017-Sep-13 23:59N 32°39' W 117°07'0 0.0
2017-Sep-13 23:26N 32°39' W 117°07'0 0.0
2017-Sep-13 22:59N 32°39' W 117°07'0 0.0
2017-Sep-13 22:29N 32°39' W 117°07'0 0.0
2017-Sep-13 21:56N 32°39' W 117°07'0 0.0
2017-Sep-13 21:29N 32°39' W 117°07'0 0.0
2017-Sep-13 20:59N 32°39' W 117°07'0 0.0
2017-Sep-13 20:29N 32°39' W 117°07'0 0.0
2017-Sep-13 19:59N 32°39' W 117°07'0 0.0
2017-Sep-13 19:29N 32°39' W 117°07'0 0.0
2017-Sep-13 18:53N 32°39' W 117°07'0 0.0
2017-Sep-13 18:29N 32°39' W 117°07'0 0.0
2017-Sep-13 17:59N 32°39' W 117°07'0 0.0
2017-Sep-13 17:26N 32°39' W 117°07'0 0.0
2017-Sep-13 16:59N 32°39' W 117°07'0 0.0
2017-Sep-13 16:29N 32°39' W 117°07'0 0.0
2017-Sep-13 15:59N 32°39' W 117°07'0 0.0
2017-Sep-13 15:26N 32°39' W 117°07'0 0.0
2017-Sep-13 14:59N 32°39' W 117°07'0 0.0
2017-Sep-13 14:29N 32°39' W 117°07'0 0.0
2017-Sep-13 13:59N 32°39' W 117°07'0 0.0
2017-Sep-13 13:29N 32°39' W 117°07'0 0.0
2017-Sep-13 12:59N 32°39' W 117°07'0 0.5
2017-Sep-13 12:31N 32°39' W 117°07'2 4.7
2017-Sep-13 12:00N 32°41' W 117°09'4 8.3
2017-Sep-13 11:30N 32°42' W 117°14'4 8.8
2017-Sep-13 11:00N 32°37' W 117°14'4 7.1
2017-Sep-13 10:30N 32°37' W 117°18'5 9.5
2017-Sep-13 10:00N 32°36' W 117°24'510.7
2017-Sep-13 09:31N 32°37' W 117°30'510.7
2017-Sep-13 09:00N 32°37' W 117°36'510.6
2017-Sep-13 08:31N 32°36' W 117°43'510.7
2017-Sep-13 08:01N 32°36' W 117°49'510.8
2017-Sep-13 07:31N 32°36' W 117°56'611.2
2017-Sep-13 07:00N 32°36' W 118°02'612.3
2017-Sep-13 06:30N 32°35' W 118°09'714.2
2017-Sep-13 06:00N 32°36' W 118°18'714.1
2017-Sep-13 05:30N 32°35' W 118°26'713.9
2017-Sep-13 05:00N 32°35' W 118°35'714.0
2017-Sep-13 04:31N 32°35' W 118°43'713.7
2017-Sep-13 04:00N 32°35' W 118°51'714.1
2017-Sep-13 03:30N 32°35' W 118°59'4 7.6
2017-Sep-13 03:00N 32°36' W 119°04'612.2
2017-Sep-13 02:30N 32°39' W 119°10'816.4
2017-Sep-13 02:00N 32°42' W 119°19'816.2
2017-Sep-13 01:30N 32°46' W 119°28'815.9
2017-Sep-13 01:00N 32°51' W 119°35'816.1
2017-Sep-13 00:30N 32°55' W 119°43'816.0
2017-Sep-13 00:00N 32°59' W 119°52'816.1
2017-Sep-12 23:30N 33°03' W 120°00'1115.4
2017-Sep-12 22:49N 33°05' W 120°12'515.7
2017-Sep-12 22:30N 33°05' W 120°18'815.5
2017-Sep-12 22:00N 33°08' W 120°27'816.2
2017-Sep-12 21:30N 33°11' W 120°36'816.4
2017-Sep-12 21:00N 33°14' W 120°45'816.0
2017-Sep-12 20:30N 33°18' W 120°54'714.7
2017-Sep-12 20:00N 33°22' W 121°01'815.5
2017-Sep-12 19:30N 33°29' W 121°05'815.5
2017-Sep-12 19:00N 33°35' W 121°10'815.2
2017-Sep-12 18:30N 33°42' W 121°14'714.6
2017-Sep-12 18:00N 33°49' W 121°18'714.6
2017-Sep-12 17:30N 33°55' W 121°22'714.7
2017-Sep-12 17:00N 34°02' W 121°26'714.2
2017-Sep-12 16:30N 34°08' W 121°30'714.6
2017-Sep-12 16:00N 34°14' W 121°34'815.1
2017-Sep-12 15:30N 34°21' W 121°38'815.9
2017-Sep-12 15:00N 34°28' W 121°43'815.5
2017-Sep-12 14:30N 34°35' W 121°47'815.4
2017-Sep-12 14:00N 34°42' W 121°51'815.2
2017-Sep-12 13:30N 34°49' W 121°55'1215.1
2017-Sep-12 12:44N 34°59' W 122°02'315.7
2017-Sep-12 12:30N 35°02' W 122°04'1115.6
2017-Sep-12 11:46N 35°12' W 122°10'415.4
2017-Sep-12 11:30N 35°16' W 122°12'815.2
2017-Sep-12 11:00N 35°23' W 122°17'815.1
2017-Sep-12 10:30N 35°29' W 122°21'815.3
2017-Sep-12 10:00N 35°36' W 122°25'815.1
2017-Sep-12 09:29N 35°43' W 122°30'714.9
2017-Sep-12 09:00N 35°50' W 122°34'1614.7
2017-Sep-12 07:56N 36°04' W 122°42'814.8
2017-Sep-12 07:22N 36°11' W 122°47'515.0
2017-Sep-12 07:00N 36°16' W 122°51'815.3
2017-Sep-12 06:30N 36°23' W 122°55'715.2
2017-Sep-12 06:00N 36°29' W 122°59'815.2
2017-Sep-12 05:30N 36°36' W 123°03'815.5
2017-Sep-12 05:00N 36°43' W 123°08'815.2
2017-Sep-12 04:30N 36°50' W 123°12'815.0
2017-Sep-12 04:00N 36°56' W 123°17'714.7
2017-Sep-12 03:30N 37°03' W 123°21'1014.3
2017-Sep-12 02:50N 37°11' W 123°26'514.3
2017-Sep-12 02:30N 37°16' W 123°29'914.4
2017-Sep-12 01:54N 37°23' W 123°34'614.7
2017-Sep-12 01:30N 37°29' W 123°38'714.7
2017-Sep-12 01:00N 37°35' W 123°42'714.5
2017-Sep-12 00:30N 37°42' W 123°46'714.8
2017-Sep-12 00:00N 37°48' W 123°50'714.9
2017-Sep-11 23:30N 37°55' W 123°55'714.8
2017-Sep-11 23:00N 38°01' W 123°59'714.7
2017-Sep-11 22:30N 38°08' W 124°03'714.8
2017-Sep-11 22:00N 38°14' W 124°08'714.8
2017-Sep-11 21:30N 38°21' W 124°12'714.8
2017-Sep-11 21:00N 38°28' W 124°16'714.9
2017-Sep-11 20:30N 38°34' W 124°20'714.6
2017-Sep-11 20:00N 38°41' W 124°25'714.7
2017-Sep-11 19:30N 38°48' W 124°28'814.8
2017-Sep-11 19:00N 38°55' W 124°31'714.8
2017-Sep-11 18:30N 39°02' W 124°34'715.0
2017-Sep-11 18:00N 39°09' W 124°37'55215.8
2017-Sep-10 07:10N 48°20' W 125°14'315.9
2017-Sep-10 06:59N 48°22' W 125°11'816.5
2017-Sep-10 06:30N 48°29' W 125°04'816.0
2017-Sep-10 06:00N 48°31' W 124°52'917.8
2017-Sep-10 05:30N 48°29' W 124°39'918.2
2017-Sep-10 05:00N 48°26' W 124°26'917.7
2017-Sep-10 04:30N 48°22' W 124°14'917.1
2017-Sep-10 04:00N 48°19' W 124°02'917.2
2017-Sep-10 03:30N 48°17' W 123°49'816.9
2017-Sep-10 02:59N 48°16' W 123°36'713.8
2017-Sep-10 02:30N 48°19' W 123°27'612.0
2017-Sep-10 02:00N 48°23' W 123°21'612.6
2017-Sep-10 01:31N 48°25' W 123°12'612.1
2017-Sep-10 01:01N 48°31' W 123°13'510.1
2017-Sep-10 00:31N 48°36' W 123°14'612.9
2017-Sep-10 00:00N 48°43' W 123°13'816.1
2017-Sep-09 23:30N 48°47' W 123°02'714.1
2017-Sep-09 23:00N 48°53' W 123°07'917.2
2017-Sep-09 22:30N 48°59' W 123°16'713.4
2017-Sep-09 22:01N 49°05' W 123°21'611.5
2017-Sep-09 21:30N 49°08' W 123°12'510.1
2017-Sep-09 20:58N 49°08' W 123°04'0 0.1
2017-Sep-09 20:28N 49°08' W 123°04'0 0.0
2017-Sep-09 19:58N 49°08' W 123°04'0 0.0
2017-Sep-09 19:28N 49°08' W 123°04'0 0.0
2017-Sep-09 18:58N 49°08' W 123°04'0 0.0
2017-Sep-09 18:28N 49°08' W 123°04'0 0.0
2017-Sep-09 17:58N 49°08' W 123°04'0 0.0
2017-Sep-09 17:28N 49°08' W 123°04'0 0.0
2017-Sep-09 16:58N 49°08' W 123°04'0 0.0
2017-Sep-09 16:28N 49°08' W 123°04'0 0.0
2017-Sep-09 15:58N 49°08' W 123°04'0 0.0
2017-Sep-09 15:28N 49°08' W 123°04'0 0.0
2017-Sep-09 14:58N 49°08' W 123°04'0 0.0
2017-Sep-09 14:28N 49°08' W 123°04'0 0.0
2017-Sep-09 13:58N 49°08' W 123°04'0 0.0
2017-Sep-09 13:31N 49°08' W 123°04'1 1.7
2017-Sep-09 13:00N 49°07' W 123°05'510.8
2017-Sep-09 12:30N 49°08' W 123°13'611.3
2017-Sep-09 12:00N 49°04' W 123°20'510.7
2017-Sep-09 11:30N 49°00' W 123°15'917.6
2017-Sep-09 11:01N 48°54' W 123°06'815.7
2017-Sep-09 10:31N 48°46' W 123°02'917.0
2017-Sep-09 10:00N 48°43' W 123°14'815.4
2017-Sep-09 09:31N 48°35' W 123°13'815.8
2017-Sep-09 09:01N 48°27' W 123°10'815.1
2017-Sep-09 08:30N 48°22' W 123°18'510.0
2017-Sep-09 08:00N 48°20' W 123°24'714.6
2017-Sep-09 07:30N 48°12' W 123°26'510.2
2017-Sep-09 07:00N 48°09' W 123°20'918.1
2017-Sep-09 06:30N 48°13' W 123°07'918.5
2017-Sep-09 06:00N 48°12' W 122°53'1019.6
2017-Sep-09 05:30N 48°08' W 122°40'1019.5
2017-Sep-09 05:00N 47°59' W 122°35'918.3
2017-Sep-09 04:30N 47°51' W 122°27'917.6
2017-Sep-09 04:00N 47°42' W 122°27'917.7
2017-Sep-09 03:30N 47°33' W 122°26'917.5
2017-Sep-09 03:00N 47°25' W 122°23'714.7
2017-Sep-09 02:30N 47°18' W 122°27'4 7.2
2017-Sep-09 02:00N 47°16' W 122°23'0 0.2
2017-Sep-08 23:58N 47°15' W 122°23'0 0.0
2017-Sep-08 22:52N 47°15' W 122°23'0 0.0
2017-Sep-08 22:16N 47°15' W 122°23'0 0.0
2017-Sep-08 18:49N 47°15' W 122°23'0 0.0
2017-Sep-08 18:13N 47°15' W 122°23'0 0.0
2017-Sep-08 17:55N 47°15' W 122°23'0 0.0
2017-Sep-08 12:35N 47°16' W 122°23'0 0.3
2017-Sep-08 12:30N 47°16' W 122°23'2 3.3
2017-Sep-08 12:00N 47°17' W 122°25'1 2.6
2017-Sep-08 11:30N 47°17' W 122°26'0 0.2
2017-Sep-08 11:00N 47°17' W 122°26'0 1.0
2017-Sep-08 10:30N 47°18' W 122°27'3 5.9
2017-Sep-08 10:00N 47°21' W 122°26'713.7
2017-Sep-08 09:30N 47°27' W 122°25'917.5
2017-Sep-08 09:00N 47°36' W 122°28'917.1
2017-Sep-08 08:30N 47°45' W 122°27'917.2
2017-Sep-08 08:00N 47°53' W 122°29'816.0
2017-Sep-08 07:30N 47°59' W 122°36'815.2
2017-Sep-08 07:00N 48°07' W 122°40'815.0
2017-Sep-08 06:30N 48°11' W 122°50'816.4
2017-Sep-08 06:00N 48°12' W 123°02'815.8
2017-Sep-08 05:30N 48°11' W 123°14'612.8
2017-Sep-08 05:00N 48°11' W 123°23'611.2
2017-Sep-08 04:29N 48°13' W 123°32'612.3
2017-Sep-08 04:00N 48°13' W 123°41'713.6
2017-Sep-08 03:28N 48°13' W 123°52'613.5
2017-Sep-08 03:00N 48°15' W 124°01'714.4
2017-Sep-08 02:30N 48°18' W 124°10'714.8
2017-Sep-08 02:00N 48°21' W 124°21'714.6
2017-Sep-08 01:30N 48°24' W 124°31'714.4
2017-Sep-08 01:00N 48°28' W 124°40'815.3
2017-Sep-08 00:30N 48°28' W 124°52'816.0
2017-Sep-08 00:00N 48°29' W 125°04'816.0
2017-Sep-07 23:30N 48°29' W 125°16'714.6
2017-Sep-07 23:00N 48°28' W 125°27'611.3
2017-Sep-07 22:30N 48°28' W 125°35'0 0.9
2017-Sep-07 22:00N 48°28' W 125°36'0 0.7
2017-Sep-07 21:30N 48°28' W 125°37'1 1.3
2017-Sep-07 20:59N 48°27' W 125°38'3 5.4
2017-Sep-07 20:30N 48°27' W 125°41'712.8
2017-Sep-07 20:00N 48°26' W 125°51'613.0
2017-Sep-07 19:30N 48°25' W 126°01'813.0
2017-Sep-07 18:54N 48°24' W 126°12'613.5
2017-Sep-07 18:29N 48°24' W 126°21'  
Track history (hours):
 
Tides and Currents Weather Stations Pressure Air Temp Water Temp Dewpoint Dewpoint Depression Visibility Wind Speed Wind Dir Waves Ship Positions

Martorell

Last reported at 2017-Sep-15 08:01 UTC. Time now 2017-Sep-23 16:23 UTC.
Position N 32°31' W 125°25'.
Warning: this ship's position is 8 days out of date.

Type: Cargo ship. MMSI: 351780000.

Date/timePositionNaut miles runAvg speedWind from/ knotsBaromVisibWave heightAir tempDewpointWater temp
2017-Sep-15 08:01N 32°31' W 125°25'016.1
2017-Sep-15 08:01N 32°31' W 125°25'1016.4
2017-Sep-15 07:23N 32°25' W 125°15'816.2
2017-Sep-15 06:53N 32°21' W 125°07'1116.5
2017-Sep-15 06:12N 32°15' W 124°56'316.5
2017-Sep-15 06:00N 32°13' W 124°53'1316.6
2017-Sep-15 05:12N 32°05' W 124°40'317.0
2017-Sep-15 05:00N 32°03' W 124°37'1116.8
2017-Sep-15 04:21N 31°57' W 124°26'616.8
2017-Sep-15 04:00N 31°54' W 124°20'816.8
2017-Sep-15 03:31N 31°49' W 124°12'1016.5
2017-Sep-15 02:54N 31°44' W 124°02'616.4
2017-Sep-15 02:30N 31°40' W 123°56'816.8
2017-Sep-15 02:01N 31°35' W 123°48'1016.4
2017-Sep-15 01:26N 31°30' W 123°39'716.6
2017-Sep-15 01:00N 31°26' W 123°32'816.6
2017-Sep-15 00:30N 31°22' W 123°24'916.5
2017-Sep-14 23:59N 31°17' W 123°15'816.5
2017-Sep-14 23:30N 31°12' W 123°08'916.3
2017-Sep-14 22:58N 31°07' W 122°59'716.1
2017-Sep-14 22:30N 31°03' W 122°52'26714.5
2017-Sep-14 04:03N 32°04' W 117°47'216.7
2017-Sep-14 03:57N 32°06' W 117°46'817.1
2017-Sep-14 03:30N 32°12' W 117°41'917.2
2017-Sep-14 03:01N 32°19' W 117°35'917.1
2017-Sep-14 02:30N 32°26' W 117°29'917.2
2017-Sep-14 02:00N 32°33' W 117°23'816.2
2017-Sep-14 01:30N 32°37' W 117°15'5 9.7
2017-Sep-14 01:00N 32°42' W 117°14'4 8.6
2017-Sep-14 00:30N 32°41' W 117°09'2 4.6
2017-Sep-13 23:59N 32°39' W 117°07'0 0.0
2017-Sep-13 23:26N 32°39' W 117°07'0 0.0
2017-Sep-13 22:59N 32°39' W 117°07'0 0.0
2017-Sep-13 22:29N 32°39' W 117°07'0 0.0
2017-Sep-13 21:56N 32°39' W 117°07'0 0.0
2017-Sep-13 21:29N 32°39' W 117°07'0 0.0
2017-Sep-13 20:59N 32°39' W 117°07'0 0.0
2017-Sep-13 20:29N 32°39' W 117°07'0 0.0
2017-Sep-13 19:59N 32°39' W 117°07'0 0.0
2017-Sep-13 19:29N 32°39' W 117°07'0 0.0
2017-Sep-13 18:53N 32°39' W 117°07'0 0.0
2017-Sep-13 18:29N 32°39' W 117°07'0 0.0
2017-Sep-13 17:59N 32°39' W 117°07'0 0.0
2017-Sep-13 17:26N 32°39' W 117°07'0 0.0
2017-Sep-13 16:59N 32°39' W 117°07'0 0.0
2017-Sep-13 16:29N 32°39' W 117°07'0 0.0
2017-Sep-13 15:59N 32°39' W 117°07'0 0.0
2017-Sep-13 15:26N 32°39' W 117°07'0 0.0
2017-Sep-13 14:59N 32°39' W 117°07'0 0.0
2017-Sep-13 14:29N 32°39' W 117°07'0 0.0
2017-Sep-13 13:59N 32°39' W 117°07'0 0.0
2017-Sep-13 13:29N 32°39' W 117°07'0 0.0
2017-Sep-13 12:59N 32°39' W 117°07'0 0.5
2017-Sep-13 12:31N 32°39' W 117°07'2 4.7
2017-Sep-13 12:00N 32°41' W 117°09'4 8.3
2017-Sep-13 11:30N 32°42' W 117°14'4 8.8
2017-Sep-13 11:00N 32°37' W 117°14'4 7.1
2017-Sep-13 10:30N 32°37' W 117°18'5 9.5
2017-Sep-13 10:00N 32°36' W 117°24'510.7
2017-Sep-13 09:31N 32°37' W 117°30'510.7
2017-Sep-13 09:00N 32°37' W 117°36'510.6
2017-Sep-13 08:31N 32°36' W 117°43'510.7
2017-Sep-13 08:01N 32°36' W 117°49'510.8
2017-Sep-13 07:31N 32°36' W 117°56'611.2
2017-Sep-13 07:00N 32°36' W 118°02'612.3
2017-Sep-13 06:30N 32°35' W 118°09'714.2
2017-Sep-13 06:00N 32°36' W 118°18'714.1
2017-Sep-13 05:30N 32°35' W 118°26'713.9
2017-Sep-13 05:00N 32°35' W 118°35'714.0
2017-Sep-13 04:31N 32°35' W 118°43'713.7
2017-Sep-13 04:00N 32°35' W 118°51'714.1
2017-Sep-13 03:30N 32°35' W 118°59'4 7.6
2017-Sep-13 03:00N 32°36' W 119°04'612.2
2017-Sep-13 02:30N 32°39' W 119°10'816.4
2017-Sep-13 02:00N 32°42' W 119°19'816.2
2017-Sep-13 01:30N 32°46' W 119°28'815.9
2017-Sep-13 01:00N 32°51' W 119°35'816.1
2017-Sep-13 00:30N 32°55' W 119°43'816.0
2017-Sep-13 00:00N 32°59' W 119°52'816.1
2017-Sep-12 23:30N 33°03' W 120°00'1115.4
2017-Sep-12 22:49N 33°05' W 120°12'515.7
2017-Sep-12 22:30N 33°05' W 120°18'815.5
2017-Sep-12 22:00N 33°08' W 120°27'816.2
2017-Sep-12 21:30N 33°11' W 120°36'816.4
2017-Sep-12 21:00N 33°14' W 120°45'816.0
2017-Sep-12 20:30N 33°18' W 120°54'714.7
2017-Sep-12 20:00N 33°22' W 121°01'815.5
2017-Sep-12 19:30N 33°29' W 121°05'815.5
2017-Sep-12 19:00N 33°35' W 121°10'815.2
2017-Sep-12 18:30N 33°42' W 121°14'714.6
2017-Sep-12 18:00N 33°49' W 121°18'714.6
2017-Sep-12 17:30N 33°55' W 121°22'714.7
2017-Sep-12 17:00N 34°02' W 121°26'714.2
2017-Sep-12 16:30N 34°08' W 121°30'714.6
2017-Sep-12 16:00N 34°14' W 121°34'815.1
2017-Sep-12 15:30N 34°21' W 121°38'815.9
2017-Sep-12 15:00N 34°28' W 121°43'815.5
2017-Sep-12 14:30N 34°35' W 121°47'815.4
2017-Sep-12 14:00N 34°42' W 121°51'815.2
2017-Sep-12 13:30N 34°49' W 121°55'1215.1
2017-Sep-12 12:44N 34°59' W 122°02'315.7
2017-Sep-12 12:30N 35°02' W 122°04'1115.6
2017-Sep-12 11:46N 35°12' W 122°10'415.4
2017-Sep-12 11:30N 35°16' W 122°12'815.2
2017-Sep-12 11:00N 35°23' W 122°17'815.1
2017-Sep-12 10:30N 35°29' W 122°21'815.3
2017-Sep-12 10:00N 35°36' W 122°25'815.1
2017-Sep-12 09:29N 35°43' W 122°30'714.9
2017-Sep-12 09:00N 35°50' W 122°34'1614.7
2017-Sep-12 07:56N 36°04' W 122°42'814.8
2017-Sep-12 07:22N 36°11' W 122°47'515.0
2017-Sep-12 07:00N 36°16' W 122°51'815.3
2017-Sep-12 06:30N 36°23' W 122°55'715.2
2017-Sep-12 06:00N 36°29' W 122°59'815.2
2017-Sep-12 05:30N 36°36' W 123°03'815.5
2017-Sep-12 05:00N 36°43' W 123°08'815.2
2017-Sep-12 04:30N 36°50' W 123°12'815.0
2017-Sep-12 04:00N 36°56' W 123°17'714.7
2017-Sep-12 03:30N 37°03' W 123°21'1014.3
2017-Sep-12 02:50N 37°11' W 123°26'514.3
2017-Sep-12 02:30N 37°16' W 123°29'914.4
2017-Sep-12 01:54N 37°23' W 123°34'614.7
2017-Sep-12 01:30N 37°29' W 123°38'714.7
2017-Sep-12 01:00N 37°35' W 123°42'714.5
2017-Sep-12 00:30N 37°42' W 123°46'714.8
2017-Sep-12 00:00N 37°48' W 123°50'714.9
2017-Sep-11 23:30N 37°55' W 123°55'714.8
2017-Sep-11 23:00N 38°01' W 123°59'714.7
2017-Sep-11 22:30N 38°08' W 124°03'714.8
2017-Sep-11 22:00N 38°14' W 124°08'714.8
2017-Sep-11 21:30N 38°21' W 124°12'714.8
2017-Sep-11 21:00N 38°28' W 124°16'714.9
2017-Sep-11 20:30N 38°34' W 124°20'714.6
2017-Sep-11 20:00N 38°41' W 124°25'714.7
2017-Sep-11 19:30N 38°48' W 124°28'814.8
2017-Sep-11 19:00N 38°55' W 124°31'714.8
2017-Sep-11 18:30N 39°02' W 124°34'715.0
2017-Sep-11 18:00N 39°09' W 124°37'55215.8
2017-Sep-10 07:10N 48°20' W 125°14'315.9
2017-Sep-10 06:59N 48°22' W 125°11'816.5
2017-Sep-10 06:30N 48°29' W 125°04'816.0
2017-Sep-10 06:00N 48°31' W 124°52'917.8
2017-Sep-10 05:30N 48°29' W 124°39'918.2
2017-Sep-10 05:00N 48°26' W 124°26'917.7
2017-Sep-10 04:30N 48°22' W 124°14'917.1
2017-Sep-10 04:00N 48°19' W 124°02'917.2
2017-Sep-10 03:30N 48°17' W 123°49'816.9
2017-Sep-10 02:59N 48°16' W 123°36'713.8
2017-Sep-10 02:30N 48°19' W 123°27'612.0
2017-Sep-10 02:00N 48°23' W 123°21'612.6
2017-Sep-10 01:31N 48°25' W 123°12'612.1
2017-Sep-10 01:01N 48°31' W 123°13'510.1
2017-Sep-10 00:31N 48°36' W 123°14'612.9
2017-Sep-10 00:00N 48°43' W 123°13'816.1
2017-Sep-09 23:30N 48°47' W 123°02'714.1
2017-Sep-09 23:00N 48°53' W 123°07'917.2
2017-Sep-09 22:30N 48°59' W 123°16'713.4
2017-Sep-09 22:01N 49°05' W 123°21'611.5
2017-Sep-09 21:30N 49°08' W 123°12'510.1
2017-Sep-09 20:58N 49°08' W 123°04'0 0.1
2017-Sep-09 20:28N 49°08' W 123°04'0 0.0
2017-Sep-09 19:58N 49°08' W 123°04'0 0.0
2017-Sep-09 19:28N 49°08' W 123°04'0 0.0
2017-Sep-09 18:58N 49°08' W 123°04'0 0.0
2017-Sep-09 18:28N 49°08' W 123°04'0 0.0
2017-Sep-09 17:58N 49°08' W 123°04'0 0.0
2017-Sep-09 17:28N 49°08' W 123°04'0 0.0
2017-Sep-09 16:58N 49°08' W 123°04'0 0.0
2017-Sep-09 16:28N 49°08' W 123°04'0 0.0
2017-Sep-09 15:58N 49°08' W 123°04'0 0.0
2017-Sep-09 15:28N 49°08' W 123°04'0 0.0
2017-Sep-09 14:58N 49°08' W 123°04'0 0.0
2017-Sep-09 14:28N 49°08' W 123°04'0 0.0
2017-Sep-09 13:58N 49°08' W 123°04'0 0.0
2017-Sep-09 13:31N 49°08' W 123°04'1 1.7
2017-Sep-09 13:00N 49°07' W 123°05'510.8
2017-Sep-09 12:30N 49°08' W 123°13'611.3
2017-Sep-09 12:00N 49°04' W 123°20'510.7
2017-Sep-09 11:30N 49°00' W 123°15'917.6
2017-Sep-09 11:01N 48°54' W 123°06'815.7
2017-Sep-09 10:31N 48°46' W 123°02'917.0
2017-Sep-09 10:00N 48°43' W 123°14'815.4
2017-Sep-09 09:31N 48°35' W 123°13'815.8
2017-Sep-09 09:01N 48°27' W 123°10'815.1
2017-Sep-09 08:30N 48°22' W 123°18'510.0
2017-Sep-09 08:00N 48°20' W 123°24'714.6
2017-Sep-09 07:30N 48°12' W 123°26'510.2
2017-Sep-09 07:00N 48°09' W 123°20'918.1
2017-Sep-09 06:30N 48°13' W 123°07'918.5
2017-Sep-09 06:00N 48°12' W 122°53'1019.6
2017-Sep-09 05:30N 48°08' W 122°40'1019.5
2017-Sep-09 05:00N 47°59' W 122°35'918.3
2017-Sep-09 04:30N 47°51' W 122°27'917.6
2017-Sep-09 04:00N 47°42' W 122°27'917.7
2017-Sep-09 03:30N 47°33' W 122°26'917.5
2017-Sep-09 03:00N 47°25' W 122°23'714.7
2017-Sep-09 02:30N 47°18' W 122°27'4 7.2
2017-Sep-09 02:00N 47°16' W 122°23'0 0.2
2017-Sep-08 23:58N 47°15' W 122°23'0 0.0
2017-Sep-08 22:52N 47°15' W 122°23'0 0.0
2017-Sep-08 22:16N 47°15' W 122°23'0 0.0
2017-Sep-08 18:49N 47°15' W 122°23'0 0.0
2017-Sep-08 18:13N 47°15' W 122°23'0 0.0
2017-Sep-08 17:55N 47°15' W 122°23'0 0.0
2017-Sep-08 12:35N 47°16' W 122°23'0 0.3
2017-Sep-08 12:30N 47°16' W 122°23'2 3.3
2017-Sep-08 12:00N 47°17' W 122°25'1 2.6
2017-Sep-08 11:30N 47°17' W 122°26'0 0.2
2017-Sep-08 11:00N 47°17' W 122°26'0 1.0
2017-Sep-08 10:30N 47°18' W 122°27'3 5.9
2017-Sep-08 10:00N 47°21' W 122°26'713.7
2017-Sep-08 09:30N 47°27' W 122°25'917.5
2017-Sep-08 09:00N 47°36' W 122°28'917.1
2017-Sep-08 08:30N 47°45' W 122°27'917.2
2017-Sep-08 08:00N 47°53' W 122°29'816.0
2017-Sep-08 07:30N 47°59' W 122°36'815.2
2017-Sep-08 07:00N 48°07' W 122°40'815.0
2017-Sep-08 06:30N 48°11' W 122°50'816.4
2017-Sep-08 06:00N 48°12' W 123°02'815.8
2017-Sep-08 05:30N 48°11' W 123°14'612.8
2017-Sep-08 05:00N 48°11' W 123°23'611.2
2017-Sep-08 04:29N 48°13' W 123°32'612.3
2017-Sep-08 04:00N 48°13' W 123°41'713.6
2017-Sep-08 03:28N 48°13' W 123°52'613.5
2017-Sep-08 03:00N 48°15' W 124°01'714.4
2017-Sep-08 02:30N 48°18' W 124°10'714.8
2017-Sep-08 02:00N 48°21' W 124°21'714.6
2017-Sep-08 01:30N 48°24' W 124°31'714.4
2017-Sep-08 01:00N 48°28' W 124°40'815.3
2017-Sep-08 00:30N 48°28' W 124°52'816.0
2017-Sep-08 00:00N 48°29' W 125°04'816.0
2017-Sep-07 23:30N 48°29' W 125°16'714.6
2017-Sep-07 23:00N 48°28' W 125°27'611.3
2017-Sep-07 22:30N 48°28' W 125°35'0 0.9
2017-Sep-07 22:00N 48°28' W 125°36'0 0.7
2017-Sep-07 21:30N 48°28' W 125°37'1 1.3
2017-Sep-07 20:59N 48°27' W 125°38'3 5.4
2017-Sep-07 20:30N 48°27' W 125°41'712.8
2017-Sep-07 20:00N 48°26' W 125°51'613.0
2017-Sep-07 19:30N 48°25' W 126°01'813.0
2017-Sep-07 18:54N 48°24' W 126°12'613.5
2017-Sep-07 18:29N 48°24' W 126°21'  

Dump ship's entire track history